Time,TemperatureF,DewpointF,PressureIn,WindDirection,WindDirectionDegrees,WindSpeedMPH,WindSpeedGustMPH,Humidity,HourlyPrecipIn,Conditions,Clouds,dailyrainin,SoftwareType,DateUTC
2013-06-11 00:12:00,68.4,68.0,29.94,SE,135,0.0,2.0,97,0.00,,,0.93,weatherlink.com 1.10,2013-06-11 04:12:00,
2013-06-11 00:27:00,68.3,68.0,29.94,ESE,113,0.0,2.0,97,0.00,,,0.93,weatherlink.com 1.10,2013-06-11 04:27:00,
2013-06-11 00:42:00,68.1,67.0,29.93,SE,132,0.0,3.0,97,0.00,,,0.93,weatherlink.com 1.10,2013-06-11 04:42:00,
2013-06-11 00:57:00,68.1,67.0,29.93,ESE,120,0.0,3.0,97,0.00,,,0.93,weatherlink.com 1.10,2013-06-11 04:57:00,
2013-06-11 01:12:00,67.9,67.0,29.93,SSE,148,0.0,3.0,97,0.00,,,0.93,weatherlink.com 1.10,2013-06-11 05:12:00,
2013-06-11 01:27:00,67.8,67.0,29.92,SE,140,0.0,3.0,97,0.00,,,0.93,weatherlink.com 1.10,2013-06-11 05:27:00,
2013-06-11 01:42:00,67.8,67.0,29.92,SE,137,0.0,1.0,97,0.00,,,0.93,weatherlink.com 1.10,2013-06-11 05:42:00,
2013-06-11 01:57:00,67.8,67.0,29.92,SSE,164,0.0,2.0,97,0.00,,,0.93,weatherlink.com 1.10,2013-06-11 05:57:00,
2013-06-11 02:12:00,67.9,67.0,29.92,SW,221,1.0,3.0,96,0.00,,,0.00,weatherlink.com 1.10,2013-06-11 06:12:00,
2013-06-11 02:27:00,68.1,67.0,29.93,South,177,0.0,2.0,96,0.00,,,0.00,weatherlink.com 1.10,2013-06-11 06:27:00,
2013-06-11 02:42:00,68.1,67.0,29.93,SSE,158,0.0,2.0,96,0.00,,,0.00,weatherlink.com 1.10,2013-06-11 06:42:00,
2013-06-11 02:57:00,68.3,67.0,29.93,SE,128,0.0,5.0,95,0.00,,,0.00,weatherlink.com 1.10,2013-06-11 06:57:00,
2013-06-11 03:12:00,68.3,67.0,29.92,South,178,0.0,2.0,94,0.00,,,0.00,weatherlink.com 1.10,2013-06-11 07:12:00,
2013-06-11 03:27:00,68.4,67.0,29.91,SSE,165,0.0,6.0,94,0.00,,,0.00,weatherlink.com 1.10,2013-06-11 07:27:00,
2013-06-11 03:42:00,68.6,67.0,29.91,ESE,111,0.0,2.0,95,0.00,,,0.00,weatherlink.com 1.10,2013-06-11 07:42:00,
2013-06-11 03:57:00,68.8,67.0,29.92,ESE,111,0.0,0.0,95,0.00,,,0.00,weatherlink.com 1.10,2013-06-11 07:57:00,
2013-06-11 04:12:00,68.8,67.0,29.92,ESE,111,0.0,0.0,95,0.00,,,0.00,weatherlink.com 1.10,2013-06-11 08:12:00,
2013-06-11 04:27:00,68.8,68.0,29.92,ESE,111,0.0,0.0,96,0.00,,,0.00,weatherlink.com 1.10,2013-06-11 08:27:00,
2013-06-11 04:42:00,68.9,68.0,29.92,ESE,111,0.0,0.0,96,0.00,,,0.00,weatherlink.com 1.10,2013-06-11 08:42:00,
2013-06-11 04:57:00,68.9,68.0,29.91,ESE,111,0.0,0.0,96,0.00,,,0.00,weatherlink.com 1.10,2013-06-11 08:57:00,
2013-06-11 05:12:00,68.9,68.0,29.91,ESE,111,0.0,0.0,96,0.00,,,0.00,weatherlink.com 1.10,2013-06-11 09:12:00,
2013-06-11 05:27:00,69.1,68.0,29.91,ESE,111,0.0,0.0,96,0.00,,,0.00,weatherlink.com 1.10,2013-06-11 09:27:00,
2013-06-11 05:42:00,69.1,68.0,29.91,ESE,111,0.0,0.0,97,0.00,,,0.00,weatherlink.com 1.10,2013-06-11 09:42:00,
2013-06-11 05:57:00,69.3,69.0,29.91,ESE,111,0.0,0.0,97,0.00,,,0.00,weatherlink.com 1.10,2013-06-11 09:57:00,
2013-06-11 06:12:00,69.3,69.0,29.90,ESE,111,0.0,0.0,97,0.00,,,0.00,weatherlink.com 1.10,2013-06-11 10:12:00,
2013-06-11 06:27:00,69.4,69.0,29.91,ESE,111,0.0,0.0,97,0.00,,,0.00,weatherlink.com 1.10,2013-06-11 10:27:00,
2013-06-11 06:42:00,69.6,69.0,29.91,ESE,111,0.0,0.0,97,0.00,,,0.00,weatherlink.com 1.10,2013-06-11 10:42:00,
2013-06-11 06:58:00,69.9,69.0,29.92,ESE,117,0.0,0.0,97,0.00,,,0.00,weatherlink.com 1.10,2013-06-11 10:58:00,
2013-06-11 07:12:00,70.1,69.0,29.92,SSE,148,0.0,1.0,97,0.00,,,0.00,weatherlink.com 1.10,2013-06-11 11:12:00,
2013-06-11 07:27:00,70.4,69.0,29.93,SSE,150,0.0,1.0,96,0.00,,,0.00,weatherlink.com 1.10,2013-06-11 11:27:00,
2013-06-11 07:42:00,70.6,70.0,29.93,SSE,163,0.0,3.0,96,0.00,,,0.00,weatherlink.com 1.10,2013-06-11 11:42:00,
2013-06-11 07:57:00,70.9,70.0,29.93,SE,129,0.0,1.0,96,0.00,,,0.00,weatherlink.com 1.10,2013-06-11 11:57:00,
2013-06-11 08:12:00,71.3,70.0,29.94,SSE,167,0.0,3.0,95,0.00,,,0.00,weatherlink.com 1.10,2013-06-11 12:12:00,
2013-06-11 08:27:00,71.8,70.0,29.94,SSE,167,0.0,1.0,94,0.00,,,0.00,weatherlink.com 1.10,2013-06-11 12:27:00,
2013-06-11 08:42:00,72.1,70.0,29.94,East,98,0.0,7.0,92,0.00,,,0.00,weatherlink.com 1.10,2013-06-11 12:42:00,
2013-06-11 08:57:00,72.8,70.0,29.94,ENE,75,0.0,2.0,92,0.00,,,0.00,weatherlink.com 1.10,2013-06-11 12:57:00,
2013-06-11 09:12:00,73.5,70.0,29.94,ENE,77,0.0,1.0,89,0.00,,,0.00,weatherlink.com 1.10,2013-06-11 13:12:00,
2013-06-11 09:27:00,74.4,70.0,29.95,East,100,0.0,1.0,85,0.00,,,0.00,weatherlink.com 1.10,2013-06-11 13:27:00,
2013-06-11 09:42:00,75.1,70.0,29.94,SSW,200,0.0,3.0,83,0.00,,,0.00,weatherlink.com 1.10,2013-06-11 13:42:00,
2013-06-11 09:57:00,76.0,69.0,29.94,ESE,102,0.0,5.0,78,0.00,,,0.00,weatherlink.com 1.10,2013-06-11 13:57:00,
2013-06-11 10:12:00,76.8,69.0,29.94,East,92,0.0,2.0,78,0.00,,,0.00,weatherlink.com 1.10,2013-06-11 14:12:00,
2013-06-11 10:27:00,77.9,69.0,29.94,South,190,0.0,2.0,74,0.00,,,0.00,weatherlink.com 1.10,2013-06-11 14:27:00,
2013-06-11 10:43:00,78.3,68.0,29.94,SSW,202,1.0,3.0,70,0.00,,,0.00,weatherlink.com 1.10,2013-06-11 14:43:00,
2013-06-11 10:58:00,78.8,66.0,29.94,East,97,0.0,3.0,66,0.00,,,0.00,weatherlink.com 1.10,2013-06-11 14:58:00,
2013-06-11 11:13:00,79.8,67.0,29.94,ESE,115,0.0,3.0,66,0.00,,,0.00,weatherlink.com 1.10,2013-06-11 15:13:00,
2013-06-11 11:28:00,79.9,68.0,29.94,South,179,0.0,1.0,67,0.00,,,0.00,weatherlink.com 1.10,2013-06-11 15:28:00,
2013-06-11 11:43:00,79.9,67.0,29.95,SSE,165,0.0,4.0,64,0.00,,,0.00,weatherlink.com 1.10,2013-06-11 15:43:00,
2013-06-11 11:58:00,80.5,66.0,29.95,North,355,0.0,4.0,61,0.00,,,0.00,weatherlink.com 1.10,2013-06-11 15:58:00,
2013-06-11 12:13:00,80.5,64.0,29.96,NE,45,0.0,3.0,58,0.00,,,0.00,weatherlink.com 1.10,2013-06-11 16:13:00,
2013-06-11 12:28:00,81.8,66.0,29.95,NE,36,1.0,3.0,59,0.00,,,0.00,weatherlink.com 1.10,2013-06-11 16:28:00,
2013-06-11 12:43:00,83.8,66.0,29.94,SSW,198,0.0,3.0,55,0.00,,,0.00,weatherlink.com 1.10,2013-06-11 16:43:00,
2013-06-11 12:58:00,84.0,64.0,29.94,NW,325,0.0,4.0,52,0.00,,,0.00,weatherlink.com 1.10,2013-06-11 16:58:00,
2013-06-11 13:13:00,84.0,64.0,29.94,ENE,59,1.0,5.0,51,0.00,,,0.00,weatherlink.com 1.10,2013-06-11 17:13:00,
2013-06-11 13:28:00,84.3,65.0,29.93,SSW,203,1.0,4.0,52,0.00,,,0.00,weatherlink.com 1.10,2013-06-11 17:28:00,
2013-06-11 13:43:00,85.1,65.0,29.93,NNE,30,0.0,3.0,51,0.00,,,0.00,weatherlink.com 1.10,2013-06-11 17:43:00,
2013-06-11 13:58:00,85.3,65.0,29.93,NE,48,0.0,2.0,50,0.00,,,0.00,weatherlink.com 1.10,2013-06-11 17:58:00,
2013-06-11 14:13:00,86.7,65.0,29.93,West,267,0.0,4.0,49,0.00,,,0.00,weatherlink.com 1.10,2013-06-11 18:13:00,
2013-06-11 14:43:00,85.7,65.0,29.93,West,278,0.0,1.0,50,0.00,,,0.00,weatherlink.com 1.10,2013-06-11 18:43:00,
2013-06-11 14:58:00,85.7,63.0,29.93,NNE,32,0.0,7.0,46,0.00,,,0.00,weatherlink.com 1.10,2013-06-11 18:58:00,
2013-06-11 15:13:00,85.1,65.0,29.93,NE,38,0.0,1.0,51,0.00,,,0.00,weatherlink.com 1.10,2013-06-11 19:13:00,
2013-06-11 15:28:00,85.3,63.0,29.93,NE,37,0.0,2.0,48,0.00,,,0.00,weatherlink.com 1.10,2013-06-11 19:28:00,
2013-06-11 15:43:00,85.9,64.0,29.93,NE,49,0.0,4.0,48,0.00,,,0.00,weatherlink.com 1.10,2013-06-11 19:43:00,
2013-06-11 15:58:00,86.1,64.0,29.93,SW,216,0.0,3.0,48,0.00,,,0.00,weatherlink.com 1.10,2013-06-11 19:58:00,
2013-06-11 16:13:00,85.1,64.0,29.93,NNE,26,0.0,2.0,49,0.00,,,0.00,weatherlink.com 1.10,2013-06-11 20:13:00,
2013-06-11 16:28:00,85.9,65.0,29.92,NE,53,0.0,1.0,49,0.00,,,0.00,weatherlink.com 1.10,2013-06-11 20:28:00,
2013-06-11 16:43:00,87.0,62.0,29.92,NW,312,1.0,3.0,43,0.00,,,0.00,weatherlink.com 1.10,2013-06-11 20:43:00,
2013-06-11 16:58:00,87.4,63.0,29.91,NW,320,0.0,2.0,44,0.00,,,0.00,weatherlink.com 1.10,2013-06-11 20:58:00,
2013-06-11 17:13:00,86.3,62.0,29.91,SE,128,1.0,2.0,44,0.00,,,0.00,weatherlink.com 1.10,2013-06-11 21:13:00,
2013-06-11 17:28:00,85.3,63.0,29.91,East,96,0.0,1.0,47,0.00,,,0.00,weatherlink.com 1.10,2013-06-11 21:28:00,
2013-06-11 17:43:00,85.7,63.0,29.91,WNW,282,0.0,1.0,46,0.00,,,0.00,weatherlink.com 1.10,2013-06-11 21:43:00,
2013-06-11 17:58:00,85.9,64.0,29.91,WNW,284,0.0,1.0,48,0.00,,,0.00,weatherlink.com 1.10,2013-06-11 21:58:00,
2013-06-11 18:13:00,85.1,64.0,29.89,WNW,284,0.0,1.0,49,0.00,,,0.00,weatherlink.com 1.10,2013-06-11 22:13:00,
2013-06-11 18:28:00,85.5,64.0,29.89,WNW,284,0.0,0.0,48,0.00,,,0.00,weatherlink.com 1.10,2013-06-11 22:28:00,
2013-06-11 18:43:00,85.3,61.0,29.89,ENE,78,0.0,2.0,44,0.00,,,0.00,weatherlink.com 1.10,2013-06-11 22:43:00,
2013-06-11 18:58:00,84.1,64.0,29.89,SSE,163,0.0,2.0,51,0.00,,,0.00,weatherlink.com 1.10,2013-06-11 22:58:00,
2013-06-11 19:13:00,82.8,63.0,29.90,SSE,163,0.0,0.0,51,0.00,,,0.00,weatherlink.com 1.10,2013-06-11 23:13:00,
2013-06-11 19:28:00,81.8,64.0,29.91,SSE,163,0.0,0.0,55,0.00,,,0.00,weatherlink.com 1.10,2013-06-11 23:28:00,
2013-06-11 19:43:00,81.2,65.0,29.91,SSE,163,0.0,0.0,58,0.00,,,0.00,weatherlink.com 1.10,2013-06-11 23:43:00,
2013-06-11 19:58:00,80.3,66.0,29.91,SSE,163,0.0,0.0,61,0.00,,,0.00,weatherlink.com 1.10,2013-06-11 23:58:00,
2013-06-11 20:13:00,79.6,66.0,29.91,SSE,163,0.0,0.0,64,0.00,,,0.00,weatherlink.com 1.10,2013-06-12 00:13:00,
2013-06-11 20:28:00,78.3,67.0,29.91,SSE,163,0.0,0.0,68,0.00,,,0.00,weatherlink.com 1.10,2013-06-12 00:28:00,
2013-06-11 20:43:00,76.8,67.0,29.90,SSE,163,0.0,0.0,72,0.00,,,0.00,weatherlink.com 1.10,2013-06-12 00:43:00,
2013-06-11 20:58:00,75.4,67.0,29.90,SSE,163,0.0,0.0,75,0.00,,,0.00,weatherlink.com 1.10,2013-06-12 00:58:00,
2013-06-11 21:13:00,74.6,67.0,29.91,SSE,163,0.0,0.0,78,0.00,,,0.00,weatherlink.com 1.10,2013-06-12 01:13:00,
2013-06-11 21:28:00,73.5,67.0,29.91,SSE,163,0.0,0.0,81,0.00,,,0.00,weatherlink.com 1.10,2013-06-12 01:28:00,
2013-06-11 21:43:00,72.7,67.0,29.92,SSE,163,0.0,0.0,83,0.00,,,0.00,weatherlink.com 1.10,2013-06-12 01:43:00,
2013-06-11 21:58:00,72.1,67.0,29.92,SSE,163,0.0,0.0,84,0.00,,,0.00,weatherlink.com 1.10,2013-06-12 01:58:00,
2013-06-11 22:13:00,71.6,67.0,29.92,SSE,163,0.0,0.0,86,0.00,,,0.00,weatherlink.com 1.10,2013-06-12 02:13:00,
2013-06-11 22:28:00,70.9,67.0,29.93,SSE,163,0.0,0.0,87,0.00,,,0.00,weatherlink.com 1.10,2013-06-12 02:28:00,
2013-06-11 22:43:00,70.6,67.0,29.94,SSE,163,0.0,0.0,88,0.00,,,0.00,weatherlink.com 1.10,2013-06-12 02:43:00,
2013-06-11 22:58:00,70.3,67.0,29.94,SSE,163,0.0,0.0,89,0.00,,,0.00,weatherlink.com 1.10,2013-06-12 02:58:00,
2013-06-11 23:13:00,69.8,67.0,29.94,SSE,163,0.0,0.0,90,0.00,,,0.00,weatherlink.com 1.10,2013-06-12 03:13:00,
2013-06-11 23:28:00,69.3,66.0,29.95,SSE,163,0.0,0.0,90,0.00,,,0.00,weatherlink.com 1.10,2013-06-12 03:28:00,
2013-06-11 23:43:00,68.9,66.0,29.95,SSE,163,0.0,0.0,91,0.00,,,0.00,weatherlink.com 1.10,2013-06-12 03:43:00,
2013-06-11 23:58:00,68.6,66.0,29.95,SSE,163,0.0,0.0,91,0.00,,,0.00,weatherlink.com 1.10,2013-06-12 03:58:00,